Time;durP1;ratioP1;P1;durP2;ratioP2;P2;SDS_P1;SDS_P2;PMS_P1;PMS_P2;Temp;Humidity;BMP_temperature;BMP_pressure;BME280_temperature;BME280_humidity;BME280_pressure;Samples;Min_cycle;Max_cycle;Signal;HPM_P1;HPM_P2
2022/04/28 00:00:00;;;;;;;13.95;6.20;;;;;;;9.04;63.67;101028.03;5003547;28;20124;-80
2022/04/28 00:02:25;;;;;;;14.45;5.25;;;;;;;9.20;62.88;101031.22;5002499;28;20026;-80
2022/04/28 00:04:51;;;;;;;17.67;5.85;;;;;;;9.35;62.68;101033.59;5004252;28;20018;-80
2022/04/28 00:07:16;;;;;;;10.07;6.18;;;;;;;9.36;62.77;101035.25;5003393;28;20014;-80
2022/04/28 00:09:41;;;;;;;11.65;5.97;;;;;;;8.90;64.12;101049.06;5003765;28;20052;-79
2022/04/28 00:12:10;;;;;;;10.70;5.38;;;;;;;9.12;63.51;101040.50;5002901;28;20088;-80
2022/04/28 00:14:36;;;;;;;10.52;5.40;;;;;;;8.82;64.71;101035.75;5004359;28;20030;-80
2022/04/28 00:17:01;;;;;;;10.77;5.25;;;;;;;8.57;64.91;101044.72;5002916;28;20024;-80
2022/04/28 00:19:26;;;;;;;12.55;5.13;;;;;;;8.67;65.34;101044.22;5003448;28;20453;-80
2022/04/28 00:21:52;;;;;;;14.47;5.20;;;;;;;8.74;64.74;101042.31;5003763;28;20030;-79
2022/04/28 00:24:17;;;;;;;14.27;6.87;;;;;;;8.51;65.00;101039.09;5003421;28;20709;-80
2022/04/28 00:26:42;;;;;;;10.52;4.93;;;;;;;8.68;64.67;101041.31;5003836;28;20368;-80
2022/04/28 00:29:08;;;;;;;14.27;6.30;;;;;;;8.71;64.03;101035.41;5003326;28;20470;-80
2022/04/28 00:31:34;;;;;;;10.45;6.10;;;;;;;8.56;63.88;101034.88;5002739;28;20061;-80
2022/04/28 00:33:59;;;;;;;16.40;7.68;;;;;;;8.61;64.17;101035.06;5003336;28;20422;-80
2022/04/28 00:36:24;;;;;;;18.13;7.60;;;;;;;8.25;65.52;101045.50;5002010;28;20345;-80
2022/04/28 00:38:50;;;;;;;14.38;8.10;;;;;;;8.18;65.56;101042.81;5003251;28;20484;-80
2022/04/28 00:41:15;;;;;;;14.13;8.47;;;;;;;8.47;64.51;101040.56;5002593;28;20140;-79
2022/04/28 00:43:49;;;;;;;20.80;9.17;;;;;;;8.56;64.38;101038.44;5003795;28;20260;-79
2022/04/28 00:46:14;;;;;;;20.60;8.00;;;;;;;8.44;64.77;101038.28;5002445;28;20270;-81
2022/04/28 00:51:23;;;;;;;13.65;7.07;;;;;;;8.41;64.00;101042.28;5002359;28;20119;-80
2022/04/28 00:53:51;;;;;;;15.45;7.60;;;;;;;8.19;65.03;101033.63;5002913;28;20030;-81
2022/04/28 00:56:16;;;;;;;17.40;8.07;;;;;;;8.34;65.13;101046.09;5003308;28;20376;-80
2022/04/28 01:01:44;;;;;;;26.05;8.52;;;;;;;7.92;66.54;101044.63;4997486;28;20048;-79
2022/04/28 01:04:10;;;;;;;19.50;7.97;;;;;;;7.88;66.71;101035.25;5017355;28;20022;-80
2022/04/28 01:06:35;;;;;;;16.27;8.50;;;;;;;8.25;65.85;101027.34;5003008;28;20432;-79
2022/04/28 01:09:01;;;;;;;31.43;9.37;;;;;;;8.08;65.94;101037.03;5001597;28;20461;-80
2022/04/28 01:11:27;;;;;;;14.88;7.00;;;;;;;7.90;66.57;101041.28;5001992;28;20357;-80
2022/04/28 01:13:52;;;;;;;15.85;8.00;;;;;;;8.08;66.24;101042.44;5004111;28;20488;-79
2022/04/28 01:16:18;;;;;;;13.73;7.05;;;;;;;8.26;65.43;101042.56;5001862;28;20018;-80
2022/04/28 01:18:43;;;;;;;14.02;6.95;;;;;;;8.06;66.59;101046.22;5002658;28;20025;-80
2022/04/28 01:21:09;;;;;;;13.25;6.93;;;;;;;8.19;66.27;101047.22;5000589;28;20485;-80
2022/04/28 01:23:37;;;;;;;19.77;8.40;;;;;;;7.91;66.98;101048.41;5002656;28;20018;-80
2022/04/28 01:26:04;;;;;;;18.77;8.57;;;;;;;7.65;67.20;101048.25;5002354;28;20026;-80
2022/04/28 01:28:31;;;;;;;14.88;7.57;;;;;;;8.03;66.24;101045.84;5002346;28;20072;-80
2022/04/28 01:30:59;;;;;;;17.45;8.38;;;;;;;8.04;66.41;101047.50;5000361;28;20088;-80
2022/04/28 01:33:24;;;;;;;12.93;6.97;;;;;;;8.02;66.91;101044.16;5001689;28;20053;-80
2022/04/28 01:35:49;;;;;;;19.65;9.73;;;;;;;7.72;67.55;101045.53;5002744;28;20109;-80
2022/04/28 01:38:14;;;;;;;19.50;8.07;;;;;;;7.86;66.58;101051.75;5002539;28;20102;-80
2022/04/28 01:40:40;;;;;;;17.13;8.10;;;;;;;7.78;66.94;101052.81;5002237;28;20861;-80
2022/04/28 01:43:05;;;;;;;18.80;7.70;;;;;;;7.77;67.68;101047.63;5002536;28;20036;-80
2022/04/28 01:45:30;;;;;;;14.88;8.18;;;;;;;7.32;68.51;101054.63;5002275;28;20345;-81
2022/04/28 01:47:56;;;;;;;13.60;8.20;;;;;;;7.46;67.99;101058.94;5002270;28;20129;-80
2022/04/28 01:50:21;;;;;;;18.52;8.45;;;;;;;7.67;67.40;101064.31;5002998;28;20476;-81
2022/04/28 01:55:31;;;;;;;18.05;9.55;;;;;;;7.82;67.38;101066.81;4992737;28;20122;-79
2022/04/28 01:58:00;;;;;;;16.70;7.95;;;;;;;7.85;66.99;101057.41;5002122;28;20461;-80
2022/04/28 02:00:25;;;;;;;16.23;10.50;;;;;;;7.61;67.66;101063.31;5001660;28;20029;-79
2022/04/28 02:02:51;;;;;;;18.80;8.52;;;;;;;7.64;67.84;101060.19;5001941;28;20612;-80
2022/04/28 02:05:16;;;;;;;15.98;8.55;;;;;;;7.18;69.18;101051.91;5002199;28;20014;-80
2022/04/28 02:07:42;;;;;;;14.10;7.78;;;;;;;6.88;69.88;101064.03;5002061;28;20296;-79
2022/04/28 02:10:08;;;;;;;16.35;9.00;;;;;;;7.12;69.78;101059.00;5001711;28;20469;-79
2022/04/28 02:12:33;;;;;;;21.17;9.70;;;;;;;7.26;69.43;101053.56;5001945;28;20026;-79
2022/04/28 02:14:59;;;;;;;15.88;8.77;;;;;;;7.55;68.71;101056.84;5000558;28;20021;-80
2022/04/28 02:17:27;;;;;;;21.17;10.15;;;;;;;7.79;67.31;101050.97;5001358;28;20022;-80
2022/04/28 02:19:53;;;;;;;14.00;6.97;;;;;;;7.62;68.45;101050.56;5001800;28;20080;-80
2022/04/28 02:22:19;;;;;;;18.08;10.20;;;;;;;7.25;69.70;101062.75;5001559;28;20034;-80
2022/04/28 02:24:46;;;;;;;20.35;10.98;;;;;;;7.03;70.26;101060.28;5001651;28;20049;-78
2022/04/28 02:27:11;;;;;;;15.95;11.23;;;;;;;7.50;69.05;101059.38;5002138;28;20022;-80
2022/04/28 02:29:36;;;;;;;15.55;10.05;;;;;;;7.55;68.45;101054.13;4999680;28;20060;-80
2022/04/28 02:32:03;;;;;;;20.05;10.68;;;;;;;7.40;68.95;101058.97;5001178;28;20044;-80
2022/04/28 02:34:28;;;;;;;26.98;13.32;;;;;;;6.88;70.43;101055.03;5001238;28;20064;-80
2022/04/28 02:36:53;;;;;;;20.83;10.05;;;;;;;7.31;69.66;101055.66;5001856;28;20473;-79
2022/04/28 02:39:19;;;;;;;16.73;8.68;;;;;;;7.52;68.68;101056.44;5000024;28;20042;-79
2022/04/28 02:41:46;;;;;;;18.88;10.88;;;;;;;7.50;69.11;101058.53;5001427;28;20103;-80
2022/04/28 02:44:14;;;;;;;18.13;9.90;;;;;;;7.53;68.83;101050.81;5001527;28;20343;-80
2022/04/28 02:46:45;;;;;;;21.33;9.50;;;;;;;7.42;69.15;101051.47;5000715;28;20030;-80
2022/04/28 02:49:10;;;;;;;22.27;10.32;;;;;;;7.26;69.53;101064.41;5002154;28;20087;-80
2022/04/28 02:51:36;;;;;;;21.50;9.80;;;;;;;7.55;68.58;101062.28;5000881;28;20030;-80
2022/04/28 02:54:02;;;;;;;19.98;10.70;;;;;;;6.99;70.41;101059.03;5001780;28;20353;-80
2022/04/28 02:56:27;;;;;;;18.40;10.57;;;;;;;7.40;69.51;101058.97;5001902;28;20087;-80
2022/04/28 02:58:53;;;;;;;19.97;11.20;;;;;;;7.36;69.57;101061.28;5001361;28;20528;-80
2022/04/28 03:01:20;;;;;;;14.93;9.27;;;;;;;7.50;68.94;101055.84;5000690;28;20288;-80
2022/04/28 03:03:45;;;;;;;15.80;8.40;;;;;;;7.35;68.81;101065.88;5001113;28;20110;-79
2022/04/28 03:11:38;;;;;;;22.67;11.55;;;;;;;7.44;68.91;101061.06;5004658;28;20068;-80
2022/04/28 03:14:04;;;;;;;25.25;11.35;;;;;;;7.41;68.84;101068.78;5005242;28;20034;-80
2022/04/28 03:16:29;;;;;;;24.25;10.40;;;;;;;7.22;69.49;101063.19;5004638;28;20030;-79
2022/04/28 03:18:54;;;;;;;18.00;10.37;;;;;;;7.28;69.70;101070.47;5005714;28;20495;-80
2022/04/28 03:21:20;;;;;;;39.67;13.48;;;;;;;7.08;70.52;101062.34;5004438;28;20749;-81
2022/04/28 03:23:46;;;;;;;20.63;9.82;;;;;;;7.23;69.30;101064.84;5005780;28;20018;-78
2022/04/28 03:26:12;;;;;;;18.25;10.02;;;;;;;7.21;70.49;101072.34;5019586;28;20041;-80
2022/04/28 03:31:21;;;;;;;23.55;11.15;;;;;;;6.45;72.59;101069.81;4997764;28;20128;-79
2022/04/28 03:33:46;;;;;;;20.17;9.57;;;;;;;6.70;71.91;101071.94;5004213;28;20479;-77
2022/04/28 03:38:56;;;;;;;18.77;11.48;;;;;;;6.78;71.37;101069.03;5004476;28;20036;-79
2022/04/28 03:41:21;;;;;;;19.35;10.90;;;;;;;6.82;71.10;101070.28;5001811;28;20461;-79
2022/04/28 03:43:46;;;;;;;20.50;12.33;;;;;;;6.40;73.11;101079.41;5004196;28;20493;-79
2022/04/28 03:46:12;;;;;;;23.60;12.82;;;;;;;6.35;73.89;101076.44;5004155;28;20266;-79
2022/04/28 03:48:38;;;;;;;21.48;10.02;;;;;;;6.58;72.90;101075.25;5004378;28;20018;-77
2022/04/28 03:51:04;;;;;;;18.90;10.45;;;;;;;6.76;72.11;101071.94;5003454;28;20014;-80
2022/04/28 03:53:30;;;;;;;20.30;11.27;;;;;;;6.94;71.60;101075.06;5004615;28;20455;-79
2022/04/28 03:55:57;;;;;;;26.88;11.65;;;;;;;7.22;70.22;101068.63;5003789;28;20407;-80
2022/04/28 03:58:25;;;;;;;20.10;9.85;;;;;;;7.10;70.85;101073.81;5001980;28;20072;-79
2022/04/28 04:00:51;;;;;;;20.02;9.73;;;;;;;7.10;70.32;101066.53;5001871;28;20100;-80
2022/04/28 04:03:17;;;;;;;21.10;11.20;;;;;;;6.48;72.16;101080.22;5002078;28;20571;-80
2022/04/28 04:05:42;;;;;;;20.58;10.85;;;;;;;6.82;71.63;101075.69;4995017;28;20564;-79
2022/04/28 04:08:07;;;;;;;21.60;10.45;;;;;;;6.63;71.60;101080.06;4993857;28;20022;-79
2022/04/28 04:10:33;;;;;;;18.67;11.10;;;;;;;6.75;71.65;101085.72;4998230;28;20050;-79
2022/04/28 04:12:58;;;;;;;17.40;8.77;;;;;;;6.72;71.50;101086.94;5003492;28;20033;-80
2022/04/28 04:15:23;;;;;;;22.00;12.57;;;;;;;6.79;71.22;101089.69;5005988;28;20259;-78
2022/04/28 04:17:49;;;;;;;23.45;11.70;;;;;;;6.70;71.36;101077.34;5003615;28;20291;-80
2022/04/28 04:20:14;;;;;;;20.73;11.20;;;;;;;6.85;71.27;101080.72;5003076;28;20089;-79
2022/04/28 04:22:39;;;;;;;20.80;11.00;;;;;;;6.73;71.09;101085.09;5003767;28;20620;-79
2022/04/28 04:25:06;;;;;;;22.17;11.45;;;;;;;6.37;72.49;101077.06;5003453;28;20503;-79
2022/04/28 04:27:31;;;;;;;23.63;12.25;;;;;;;6.47;72.25;101089.41;5002049;28;20037;-78
2022/04/28 04:29:56;;;;;;;25.38;12.02;;;;;;;6.48;72.40;101085.66;5003294;28;20010;-79
2022/04/28 04:32:25;;;;;;;23.55;11.40;;;;;;;6.64;72.07;101077.16;5003164;28;20045;-79
2022/04/28 04:34:51;;;;;;;17.48;11.70;;;;;;;6.17;73.75;101080.56;5001533;28;20116;-80
2022/04/28 04:40:21;;;;;;;23.70;12.73;;;;;;;6.27;73.72;101082.88;5000839;28;20092;-79
2022/04/28 04:42:47;;;;;;;18.98;11.18;;;;;;;6.36;73.01;101088.13;5002883;28;20103;-79
2022/04/28 04:45:13;;;;;;;26.58;10.82;;;;;;;6.36;73.41;101094.38;5003960;28;20022;-79
2022/04/28 04:47:41;;;;;;;22.40;11.95;;;;;;;6.72;72.70;101096.94;5002270;28;20415;-79
2022/04/28 04:50:08;;;;;;;26.75;11.25;;;;;;;6.88;71.83;101101.97;5003119;28;20741;-78
2022/04/28 04:52:34;;;;;;;22.95;11.98;;;;;;;6.79;71.80;101100.53;5002835;28;20085;-79
2022/04/28 04:54:59;;;;;;;24.85;10.70;;;;;;;6.56;72.49;101099.00;5003073;28;20112;-79
2022/04/28 04:57:25;;;;;;;27.67;11.88;;;;;;;6.98;71.63;101100.72;5002710;28;20021;-79
2022/04/28 04:59:50;;;;;;;22.38;10.85;;;;;;;6.71;72.98;101116.97;5002828;28;20049;-79
2022/04/28 05:02:16;;;;;;;21.70;12.07;;;;;;;6.69;72.36;101119.88;5002586;28;20030;-79
2022/04/28 05:04:41;;;;;;;23.35;13.65;;;;;;;6.41;73.81;101118.97;5002323;28;20040;-78
2022/04/28 05:07:07;;;;;;;23.47;12.47;;;;;;;6.22;75.21;101117.88;5003652;28;20746;-79
2022/04/28 05:09:32;;;;;;;19.90;11.48;;;;;;;6.23;75.38;101126.81;5000470;28;20534;-80
2022/04/28 05:11:58;;;;;;;18.58;9.50;;;;;;;6.29;74.99;101132.28;5002462;28;20165;-79
2022/04/28 05:14:23;;;;;;;25.27;10.68;;;;;;;6.41;74.54;101126.25;5004837;28;20060;-80
2022/04/28 05:16:48;;;;;;;22.52;10.80;;;;;;;6.70;73.71;101126.97;5002295;28;20473;-79
2022/04/28 05:19:13;;;;;;;21.83;11.70;;;;;;;6.57;74.22;101127.78;5002734;28;20469;-79
2022/04/28 05:21:39;;;;;;;20.50;10.27;;;;;;;6.80;73.09;101128.44;5002175;28;20266;-80
2022/04/28 05:24:04;;;;;;;20.03;11.40;;;;;;;6.94;73.21;101126.59;5002797;28;20529;-80
2022/04/28 05:26:30;;;;;;;23.98;12.05;;;;;;;7.02;72.51;101128.28;5001774;28;20279;-80
2022/04/28 05:28:55;;;;;;;24.53;11.87;;;;;;;6.91;73.03;101119.72;5002864;28;20516;-79
2022/04/28 05:31:20;;;;;;;19.63;10.77;;;;;;;7.19;72.28;101128.69;5001484;28;20376;-80
2022/04/28 05:33:45;;;;;;;33.35;13.48;;;;;;;7.31;71.48;101126.19;5001674;28;20573;-79
2022/04/28 05:36:14;;;;;;;28.40;12.60;;;;;;;6.98;72.47;101127.84;5002128;28;20010;-79
2022/04/28 05:38:39;;;;;;;20.60;10.13;;;;;;;7.32;72.08;101117.84;5001918;28;20263;-79
2022/04/28 05:41:06;;;;;;;19.17;10.13;;;;;;;7.57;70.40;101125.34;5001591;28;20037;-79
2022/04/28 05:46:17;;;;;;;23.60;13.10;;;;;;;7.69;69.65;101130.94;5001051;28;20124;-80
2022/04/28 05:48:42;;;;;;;18.20;10.30;;;;;;;7.70;70.41;101129.06;5001564;28;20065;-79
2022/04/28 05:51:11;;;;;;;17.27;10.30;;;;;;;7.78;70.11;101130.72;4999100;28;20034;-79
2022/04/28 05:53:36;;;;;;;23.65;13.43;;;;;;;7.39;71.53;101133.28;5000247;28;20038;-79
2022/04/28 05:56:02;;;;;;;28.70;11.82;;;;;;;7.44;71.52;101136.22;5001309;28;20034;-80
2022/04/28 05:58:28;;;;;;;21.15;11.77;;;;;;;7.90;69.56;101134.47;5002567;28;20408;-78
2022/04/28 06:00:53;;;;;;;23.23;10.73;;;;;;;7.92;69.06;101142.38;5000582;28;20033;-80
2022/04/28 06:03:19;;;;;;;27.55;12.27;;;;;;;8.00;68.94;101147.59;5001895;28;20018;-79
2022/04/28 06:05:44;;;;;;;22.17;11.80;;;;;;;7.80;70.11;101156.63;5001013;28;20453;-79
2022/04/28 06:08:09;;;;;;;25.13;12.63;;;;;;;7.87;69.48;101162.03;5001288;28;20022;-80
2022/04/28 06:10:34;;;;;;;22.40;12.33;;;;;;;7.77;69.85;101157.03;4999531;28;20455;-79
2022/04/28 06:13:00;;;;;;;18.00;12.60;;;;;;;8.09;69.48;101158.22;5001224;28;20310;-79
2022/04/28 06:15:39;;;;;;;20.23;11.73;;;;;;;8.05;69.77;101165.97;5003063;28;20030;-80
2022/04/28 06:18:05;;;;;;;27.60;10.83;;;;;;;8.29;68.60;101156.28;5000347;28;20473;-80
2022/04/28 06:20:31;;;;;;;25.80;12.73;;;;;;;8.20;69.42;101164.88;5001447;28;20262;-79
2022/04/28 06:22:56;;;;;;;18.77;12.20;;;;;;;8.23;69.01;101167.16;5000191;28;20026;-80
2022/04/28 06:25:23;;;;;;;20.17;11.07;;;;;;;8.20;69.22;101167.59;5003402;28;20271;-80
2022/04/28 06:27:49;;;;;;;19.17;11.45;;;;;;;8.49;67.72;101171.66;5016258;28;20033;-79
2022/04/28 06:30:15;;;;;;;18.58;10.57;;;;;;;8.52;67.58;101168.50;5010115;28;20030;-79
2022/04/28 06:32:41;;;;;;;26.83;13.18;;;;;;;8.64;67.31;101176.00;5012759;28;20034;-80
2022/04/28 06:35:07;;;;;;;21.58;11.18;;;;;;;8.66;67.14;101176.63;5000565;28;20038;-79
2022/04/28 06:37:32;;;;;;;19.67;9.50;;;;;;;8.67;67.19;101172.84;5003521;28;20026;-80
2022/04/28 06:39:58;;;;;;;19.02;9.00;;;;;;;8.62;67.83;101172.69;5005059;28;20488;-80
2022/04/28 06:42:23;;;;;;;20.47;11.13;;;;;;;8.75;67.12;101177.19;5001385;28;20106;-79
2022/04/28 06:44:48;;;;;;;18.80;11.10;;;;;;;8.63;67.36;101175.19;5003435;28;20354;-78
2022/04/28 06:47:14;;;;;;;20.33;9.13;;;;;;;8.88;67.38;101170.84;5004436;28;20025;-79
2022/04/28 06:49:39;;;;;;;21.35;11.68;;;;;;;9.01;65.89;101171.81;5008125;28;20033;-79
2022/04/28 06:52:05;;;;;;;29.05;11.75;;;;;;;8.77;67.47;101175.09;5004053;28;20034;-80
2022/04/28 06:54:30;;;;;;;21.15;10.82;;;;;;;9.09;66.16;101171.56;5005484;28;20041;-80
2022/04/28 06:56:56;;;;;;;16.38;9.25;;;;;;;9.15;66.03;101178.84;5004763;28;20052;-78
2022/04/28 06:59:21;;;;;;;19.37;9.13;;;;;;;9.23;65.91;101175.81;5005043;28;20115;-79
2022/04/28 07:04:31;;;;;;;;;;;;;;;9.09;66.39;101182.44;5002967;28;20052;-80
2022/04/28 07:06:56;;;;;;;20.98;12.13;;;;;;;9.07;67.15;101184.56;5004679;28;19917;-79
2022/04/28 07:09:21;;;;;;;23.85;12.45;;;;;;;9.30;66.15;101194.84;5004271;28;20033;-80
2022/04/28 07:11:46;;;;;;;42.45;11.57;;;;;;;9.07;66.09;101195.44;5003556;28;20111;-80
2022/04/28 07:14:13;;;;;;;19.83;12.03;;;;;;;8.94;67.51;101201.78;5006559;28;20071;-80
2022/04/28 07:16:38;;;;;;;20.42;10.77;;;;;;;8.94;67.52;101199.91;5004849;28;20551;-79
2022/04/28 07:19:05;;;;;;;26.60;12.77;;;;;;;9.10;67.30;101205.88;5004318;28;20547;-80
2022/04/28 07:21:30;;;;;;;23.52;12.98;;;;;;;9.17;66.26;101209.38;5004711;28;20404;-79
2022/04/28 07:23:59;;;;;;;20.55;10.65;;;;;;;8.92;67.05;101199.28;5004548;28;20026;-79
2022/04/28 07:26:24;;;;;;;21.33;11.80;;;;;;;9.22;67.27;101214.16;5004543;28;20030;-79
2022/04/28 07:28:50;;;;;;;18.90;10.77;;;;;;;9.41;66.69;101217.81;5004664;28;20022;-79
2022/04/28 07:31:15;;;;;;;22.73;13.23;;;;;;;9.40;66.41;101216.13;5001000;28;20496;-80
2022/04/28 07:33:40;;;;;;;24.27;10.23;;;;;;;9.54;65.99;101218.75;5005203;28;20121;-79
2022/04/28 07:36:05;;;;;;;24.63;10.93;;;;;;;9.64;66.06;101219.06;5003897;28;20031;-80
2022/04/28 07:41:33;;;;;;;26.95;12.75;;;;;;;9.44;66.65;101220.06;5002862;28;20048;-81
2022/04/28 07:43:59;;;;;;;28.47;12.20;;;;;;;9.59;65.98;101218.91;5004893;28;20030;-79
2022/04/28 07:46:24;;;;;;;20.27;10.63;;;;;;;9.52;66.27;101218.94;5004649;28;20785;-80
2022/04/28 07:48:49;;;;;;;21.83;10.73;;;;;;;9.57;67.60;101221.88;5003394;28;20271;-80
2022/04/28 07:51:15;;;;;;;18.47;9.50;;;;;;;9.48;67.21;101227.81;5004193;28;20294;-80
2022/04/28 07:53:40;;;;;;;20.92;11.05;;;;;;;9.45;67.44;101224.47;5004048;28;20820;-80
2022/04/28 07:56:13;;;;;;;21.08;10.70;;;;;;;9.73;66.36;101222.34;5003506;28;20108;-80
2022/04/28 07:58:38;;;;;;;19.08;10.40;;;;;;;9.91;65.78;101228.88;5004974;28;20037;-81
2022/04/28 08:01:04;;;;;;;17.23;10.32;;;;;;;9.69;66.37;101230.13;5003422;28;20378;-81
2022/04/28 08:03:30;;;;;;;20.58;11.95;;;;;;;9.74;65.20;101239.53;5004399;28;20536;-80
2022/04/28 08:05:55;;;;;;;29.52;11.77;;;;;;;9.72;65.79;101249.81;5003873;28;20032;-81
2022/04/28 08:08:21;;;;;;;24.25;9.18;;;;;;;9.81;66.12;101243.03;5004170;28;20061;-81
2022/04/28 08:10:47;;;;;;;19.33;11.30;;;;;;;9.93;65.92;101241.22;5003158;28;20076;-80
2022/04/28 08:13:12;;;;;;;18.58;10.05;;;;;;;9.97;65.46;101246.22;5003426;28;20068;-80
2022/04/28 08:15:38;;;;;;;20.63;10.30;;;;;;;10.19;65.83;101251.28;5006081;28;20057;-80
2022/04/28 08:18:04;;;;;;;23.55;10.30;;;;;;;10.30;64.62;101246.94;5003206;28;20026;-80
2022/04/28 08:20:29;;;;;;;19.85;11.27;;;;;;;10.33;65.41;101255.50;5004176;28;20056;-80
2022/04/28 08:22:55;;;;;;;22.38;10.60;;;;;;;10.21;65.15;101249.16;5003693;28;20452;-80
2022/04/28 08:25:20;;;;;;;19.15;9.52;;;;;;;10.20;64.81;101245.59;5004222;28;20026;-80
2022/04/28 08:27:45;;;;;;;32.83;11.25;;;;;;;10.15;65.27;101248.13;5003228;28;20041;-80
2022/04/28 08:30:11;;;;;;;23.30;11.73;;;;;;;10.20;64.73;101244.75;5004095;28;20074;-81
2022/04/28 08:32:36;;;;;;;18.48;8.75;;;;;;;10.38;64.54;101243.91;5003544;28;20298;-80
2022/04/28 08:35:02;;;;;;;20.70;10.52;;;;;;;10.62;64.53;101244.94;5004041;28;20026;-81
2022/04/28 08:37:27;;;;;;;25.33;11.63;;;;;;;10.67;63.88;101233.34;5003891;28;20535;-81
2022/04/28 08:39:53;;;;;;;19.52;10.60;;;;;;;10.57;64.10;101242.06;5003732;28;20444;-81
2022/04/28 08:42:21;;;;;;;24.38;10.98;;;;;;;10.72;63.50;101246.28;5003928;28;20312;-80
2022/04/28 08:44:47;;;;;;;19.90;10.48;;;;;;;10.79;62.81;101247.03;5003074;28;20366;-81
2022/04/28 08:47:12;;;;;;;20.98;11.10;;;;;;;10.94;62.87;101249.34;5003435;28;20116;-81
2022/04/28 08:49:51;;;;;;;18.23;9.70;;;;;;;11.12;62.33;101252.25;5003118;28;20512;-80
2022/04/28 08:52:17;;;;;;;21.42;11.23;;;;;;;11.03;62.42;101255.31;5002739;28;20025;-81
2022/04/28 08:54:47;;;;;;;13.18;9.02;;;;;;;11.08;62.49;101251.91;5003730;28;20026;-81
2022/04/28 08:57:13;;;;;;;17.23;10.68;;;;;;;11.25;63.02;101260.25;5018215;28;20045;-81
2022/04/28 08:59:39;;;;;;;24.77;9.68;;;;;;;11.39;61.78;101254.63;5004369;28;20029;-81
2022/04/28 09:02:05;;;;;;;19.38;8.23;;;;;;;11.46;61.52;101258.06;5001661;28;20033;-81
2022/04/28 09:04:30;;;;;;;19.17;9.57;;;;;;;11.49;61.93;101265.78;5003890;28;20054;-81
2022/04/28 09:06:58;;;;;;;17.73;8.15;;;;;;;11.54;62.72;101256.88;5003287;28;20072;-80
2022/04/28 09:09:26;;;;;;;17.08;8.48;;;;;;;11.68;61.63;101260.22;5002759;28;20033;-79
2022/04/28 09:11:53;;;;;;;20.55;10.07;;;;;;;11.72;61.09;101263.31;5002311;28;20056;-79
2022/04/28 09:14:20;;;;;;;15.82;8.57;;;;;;;11.70;60.92;101260.81;5009995;28;20064;-80
2022/04/28 09:16:48;;;;;;;21.70;10.05;;;;;;;11.84;60.80;101258.69;5022667;28;20057;-79
2022/04/28 09:19:22;;;;;;;19.33;9.57;;;;;;;11.97;60.48;101254.91;5021742;28;20092;-81
2022/04/28 09:21:50;;;;;;;17.60;9.48;;;;;;;12.12;59.71;101251.72;5007914;28;20121;-81
2022/04/28 09:24:16;;;;;;;21.95;9.32;;;;;;;12.20;59.61;101257.91;5001678;28;20048;-80
2022/04/28 09:26:41;;;;;;;20.80;9.95;;;;;;;12.29;59.86;101244.69;5003048;28;20541;-82
2022/04/28 09:29:12;;;;;;;19.75;7.55;;;;;;;12.39;59.77;101238.63;5002884;28;20056;-82
2022/04/28 09:31:39;;;;;;;26.85;9.90;;;;;;;12.39;60.19;101249.56;4998606;28;20029;-80
2022/04/28 09:34:05;;;;;;;18.67;8.93;;;;;;;12.53;58.73;101244.66;5003029;28;20057;-80
2022/04/28 09:36:43;;;;;;;21.38;8.60;;;;;;;12.70;58.17;101237.34;5002180;28;20025;-80
2022/04/28 09:39:12;;;;;;;16.50;7.72;;;;;;;12.73;57.08;101233.31;5003467;28;20022;-78
2022/04/28 09:44:22;;;;;;;;;;;;;;;12.89;56.76;101248.13;5002939;28;20084;-82
2022/04/28 09:46:49;;;;;;;17.45;8.50;;;;;;;12.90;54.95;101243.44;5002807;28;20396;-81
2022/04/28 09:49:21;;;;;;;19.05;9.07;;;;;;;12.99;55.88;101231.06;5001747;28;20026;-80
2022/04/28 09:51:50;;;;;;;17.08;8.80;;;;;;;13.28;56.28;101238.41;5002570;28;20280;-80
2022/04/28 09:54:17;;;;;;;21.63;9.82;;;;;;;13.42;56.77;101236.19;5001836;28;20018;-80
2022/04/28 09:56:44;;;;;;;16.73;8.40;;;;;;;13.40;55.49;101236.41;5002576;28;20037;-80
2022/04/28 09:59:12;;;;;;;18.13;8.75;;;;;;;13.51;55.54;101237.41;5002289;28;20028;-80
2022/04/28 10:01:38;;;;;;;19.02;8.90;;;;;;;13.57;55.13;101230.13;5001412;28;20030;-80
2022/04/28 10:04:06;;;;;;;18.23;9.05;;;;;;;13.59;55.25;101225.25;5002717;28;20551;-80
2022/04/28 10:06:34;;;;;;;19.85;10.63;;;;;;;13.64;54.21;101221.75;5001669;28;20041;-81
2022/04/28 10:09:05;;;;;;;16.33;9.52;;;;;;;13.78;53.66;101222.25;5003016;28;20184;-80
2022/04/28 10:11:32;;;;;;;18.13;9.02;;;;;;;13.59;52.62;101219.75;5000862;28;20823;-80
2022/04/28 10:13:59;;;;;;;18.98;9.30;;;;;;;13.72;53.44;101220.50;5007034;28;20408;-80
2022/04/28 10:16:25;;;;;;;18.00;7.93;;;;;;;13.86;51.05;101221.81;5021375;28;20044;-81
2022/04/28 10:19:03;;;;;;;21.98;9.40;;;;;;;14.04;51.91;101219.88;5021364;28;20025;-81
2022/04/28 10:21:33;;;;;;;16.95;8.32;;;;;;;14.14;51.67;101221.13;5010363;28;20038;-80
2022/04/28 10:32:53;;;;;;;16.45;9.80;;;;;;;14.63;49.79;101222.25;5000384;28;20054;-80
2022/04/28 10:35:35;;;;;;;25.52;11.25;;;;;;;14.39;48.75;101222.53;5002574;28;20064;-80
2022/04/28 10:38:26;;;;;;;15.27;8.52;;;;;;;14.65;50.71;101220.09;5002114;28;20092;-80
2022/04/28 10:41:08;;;;;;;14.65;8.82;;;;;;;14.63;50.03;101231.31;4995604;28;20342;-81
2022/04/28 10:43:33;;;;;;;18.60;10.32;;;;;;;14.67;49.70;101220.66;5002229;28;20033;-81
2022/04/28 10:46:28;;;;;;;23.07;10.60;;;;;;;14.57;48.42;101219.47;5001003;28;20068;-80
2022/04/28 10:49:03;;;;;;;15.90;9.30;;;;;;;14.79;50.42;101220.50;5002204;28;20081;-80
2022/04/28 10:51:32;;;;;;;18.73;10.25;;;;;;;14.99;49.04;101216.38;5001232;28;20095;-81
2022/04/28 10:54:11;;;;;;;16.65;9.82;;;;;;;14.98;47.94;101204.56;5000868;28;20049;-79
2022/04/28 10:56:42;;;;;;;20.10;10.38;;;;;;;14.92;47.83;101219.31;5002396;28;20076;-80
2022/04/28 11:02:17;;;;;;;20.45;9.73;;;;;;;15.08;46.49;101213.97;5000420;28;20049;-81
2022/04/28 11:04:48;;;;;;;18.88;10.23;;;;;;;15.20;46.78;101219.28;5000360;28;20077;-81
2022/04/28 11:07:21;;;;;;;17.40;10.73;;;;;;;15.37;46.22;101213.69;5000196;28;20037;-80
2022/04/28 11:10:05;;;;;;;16.77;10.63;;;;;;;15.54;47.18;101213.53;5000988;28;20046;-80
2022/04/28 11:12:41;;;;;;;16.52;9.48;;;;;;;15.62;46.27;101212.25;4988392;28;20037;-80
2022/04/28 11:15:13;;;;;;;18.40;9.80;;;;;;;15.71;46.73;101205.16;5007831;28;20022;-80
2022/04/28 11:17:43;;;;;;;19.33;9.88;;;;;;;15.53;46.84;101211.91;5001545;28;20512;-81
2022/04/28 11:20:12;;;;;;;15.43;9.52;;;;;;;15.31;45.03;101210.06;5000072;28;20049;-80
2022/04/28 11:22:41;;;;;;;22.13;11.02;;;;;;;15.41;46.48;101209.34;5001957;28;20044;-80
2022/04/28 11:25:12;;;;;;;16.33;8.55;;;;;;;15.62;46.56;101204.81;5000835;28;20029;-81
2022/04/28 11:30:26;;;;;;;17.50;9.27;;;;;;;15.73;45.74;101208.47;5000221;28;22772;-80
2022/04/28 11:32:57;;;;;;;18.75;10.45;;;;;;;15.83;45.46;101215.13;5004421;28;20133;-79
2022/04/28 11:35:28;;;;;;;14.50;8.88;;;;;;;15.86;43.21;101209.09;5004181;28;20116;-80
2022/04/28 11:37:55;;;;;;;17.67;9.32;;;;;;;15.96;45.31;101202.81;5003818;28;20034;-80
2022/04/28 11:40:22;;;;;;;16.02;7.90;;;;;;;16.16;44.88;101198.56;5004896;28;20432;-80
2022/04/28 11:42:55;;;;;;;20.13;10.13;;;;;;;16.07;43.87;101192.72;5005175;28;20104;-80
2022/04/28 11:45:21;;;;;;;20.98;10.10;;;;;;;16.15;45.09;101185.91;5005074;28;20049;-80
2022/04/28 11:47:46;;;;;;;17.27;8.77;;;;;;;16.29;44.88;101184.31;5005806;28;20037;-80
2022/04/28 11:50:23;;;;;;;20.52;10.10;;;;;;;16.36;43.82;101191.47;5003382;28;20574;-80
2022/04/28 11:53:07;;;;;;;18.05;8.45;;;;;;;16.51;44.14;101190.72;5003444;28;20061;-80
2022/04/28 11:55:38;;;;;;;;;;;;;;;16.49;45.09;101181.91;5002835;28;20583;-80
2022/04/28 11:58:06;;;;;;;16.65;9.15;;;;;;;16.54;45.01;101184.66;5003003;28;19940;-80
2022/04/28 12:00:52;;;;;;;18.23;10.25;;;;;;;16.41;44.46;101194.28;5004385;28;20034;-80
2022/04/28 12:03:25;;;;;;;14.82;9.05;;;;;;;16.72;44.38;101193.53;5003515;28;20519;-80
2022/04/28 12:05:52;;;;;;;29.75;8.77;;;;;;;16.73;44.21;101192.44;5004868;28;20145;-80